sensor_id;sensor_type;location;lat;lon;timestamp;pressure;altitude;pressure_sealevel;temperature;humidity
19676;BME280;39539;52.202;9.876;2023-12-20T00:00:47;100402.84;;;7.03;100.00
19676;BME280;39539;52.202;9.876;2023-12-20T00:03:12;100426.88;;;7.08;100.00
19676;BME280;39539;52.202;9.876;2023-12-20T00:05:37;100420.31;;;7.04;100.00
19676;BME280;39539;52.202;9.876;2023-12-20T00:08:06;100426.88;;;7.08;100.00
19676;BME280;39539;52.202;9.876;2023-12-20T00:10:31;100422.78;;;7.06;100.00
19676;BME280;39539;52.202;9.876;2023-12-20T00:12:57;100429.75;;;7.13;100.00
19676;BME280;39539;52.202;9.876;2023-12-20T00:15:22;100428.31;;;7.11;100.00
19676;BME280;39539;52.202;9.876;2023-12-20T00:17:47;100427.69;;;7.09;100.00
19676;BME280;39539;52.202;9.876;2023-12-20T00:20:12;100431.38;;;7.14;100.00
19676;BME280;39539;52.202;9.876;2023-12-20T00:22:38;100437.31;;;7.16;100.00
19676;BME280;39539;52.202;9.876;2023-12-20T00:25:03;100438.31;;;7.15;100.00
19676;BME280;39539;52.202;9.876;2023-12-20T00:27:29;100434.06;;;7.21;100.00
19676;BME280;39539;52.202;9.876;2023-12-20T00:29:54;100431.63;;;7.19;100.00
19676;BME280;39539;52.202;9.876;2023-12-20T00:32:20;100439.94;;;7.16;100.00
19676;BME280;39539;52.202;9.876;2023-12-20T00:34:45;100438.69;;;7.12;100.00
19676;BME280;39539;52.202;9.876;2023-12-20T00:37:10;100448.25;;;7.13;100.00
19676;BME280;39539;52.202;9.876;2023-12-20T00:39:36;100453.09;;;7.10;100.00
19676;BME280;39539;52.202;9.876;2023-12-20T00:42:01;100454.28;;;7.07;100.00
19676;BME280;39539;52.202;9.876;2023-12-20T00:44:26;100461.13;;;7.02;100.00
19676;BME280;39539;52.202;9.876;2023-12-20T00:46:52;100458.63;;;6.93;100.00
19676;BME280;39539;52.202;9.876;2023-12-20T00:49:17;100462.00;;;6.87;100.00
19676;BME280;39539;52.202;9.876;2023-12-20T00:51:42;100462.00;;;6.87;100.00
19676;BME280;39539;52.202;9.876;2023-12-20T00:54:08;100466.69;;;6.85;100.00
19676;BME280;39539;52.202;9.876;2023-12-20T00:56:34;100453.50;;;6.70;100.00
19676;BME280;39539;52.202;9.876;2023-12-20T00:58:59;100465.63;;;6.65;100.00
19676;BME280;39539;52.202;9.876;2023-12-20T01:01:24;100455.19;;;6.57;100.00
19676;BME280;39539;52.202;9.876;2023-12-20T01:03:50;100448.09;;;6.42;100.00
19676;BME280;39539;52.202;9.876;2023-12-20T01:06:16;100457.41;;;6.38;100.00
19676;BME280;39539;52.202;9.876;2023-12-20T01:08:41;100460.22;;;6.37;100.00
19676;BME280;39539;52.202;9.876;2023-12-20T01:11:07;100459.63;;;6.35;100.00
19676;BME280;39539;52.202;9.876;2023-12-20T01:13:32;100446.78;;;6.32;100.00
19676;BME280;39539;52.202;9.876;2023-12-20T01:15:58;100439.44;;;6.12;100.00
19676;BME280;39539;52.202;9.876;2023-12-20T01:18:23;100442.81;;;6.06;100.00
19676;BME280;39539;52.202;9.876;2023-12-20T01:20:48;100438.88;;;6.02;100.00
19676;BME280;39539;52.202;9.876;2023-12-20T01:23:13;100438.50;;;5.90;100.00
19676;BME280;39539;52.202;9.876;2023-12-20T01:25:39;100443.69;;;5.83;100.00
19676;BME280;39539;52.202;9.876;2023-12-20T01:28:04;100443.69;;;5.83;100.00
19676;BME280;39539;52.202;9.876;2023-12-20T01:30:30;100441.13;;;5.75;100.00
19676;BME280;39539;52.202;9.876;2023-12-20T01:32:55;100440.66;;;5.72;100.00
19676;BME280;39539;52.202;9.876;2023-12-20T01:35:20;100454.47;;;5.74;100.00
19676;BME280;39539;52.202;9.876;2023-12-20T01:37:45;100443.66;;;5.69;100.00
19676;BME280;39539;52.202;9.876;2023-12-20T01:40:11;100436.28;;;5.64;100.00
19676;BME280;39539;52.202;9.876;2023-12-20T01:42:36;100441.94;;;5.61;100.00
19676;BME280;39539;52.202;9.876;2023-12-20T01:45:02;100433.09;;;5.54;100.00
19676;BME280;39539;52.202;9.876;2023-12-20T01:47:28;100450.19;;;5.58;100.00
19676;BME280;39539;52.202;9.876;2023-12-20T01:49:53;100452.19;;;5.56;100.00
19676;BME280;39539;52.202;9.876;2023-12-20T01:52:19;100442.38;;;5.50;100.00
19676;BME280;39539;52.202;9.876;2023-12-20T01:54:45;100448.34;;;5.44;100.00
19676;BME280;39539;52.202;9.876;2023-12-20T01:57:12;100439.44;;;5.45;100.00
19676;BME280;39539;52.202;9.876;2023-12-20T01:59:39;100459.44;;;5.54;100.00
19676;BME280;39539;52.202;9.876;2023-12-20T02:02:05;100452.19;;;5.56;100.00
19676;BME280;39539;52.202;9.876;2023-12-20T02:04:30;100455.13;;;5.61;100.00
19676;BME280;39539;52.202;9.876;2023-12-20T02:06:56;100438.81;;;5.57;100.00
19676;BME280;39539;52.202;9.876;2023-12-20T02:09:22;100453.31;;;5.76;100.00
19676;BME280;39539;52.202;9.876;2023-12-20T02:11:48;100450.38;;;5.71;100.00
19676;BME280;39539;52.202;9.876;2023-12-20T02:14:13;100442.66;;;5.70;100.00
19676;BME280;39539;52.202;9.876;2023-12-20T02:16:39;100451.69;;;5.75;100.00
19676;BME280;39539;52.202;9.876;2023-12-20T02:19:11;100463.13;;;5.82;100.00
19676;BME280;39539;52.202;9.876;2023-12-20T02:21:38;100464.59;;;5.85;100.00
19676;BME280;39539;52.202;9.876;2023-12-20T02:24:03;100452.22;;;5.85;100.00
19676;BME280;39539;52.202;9.876;2023-12-20T02:26:29;100455.13;;;5.91;100.00
19676;BME280;39539;52.202;9.876;2023-12-20T02:28:54;100454.59;;;5.80;100.00
19676;BME280;39539;52.202;9.876;2023-12-20T02:31:23;100452.03;;;5.72;100.00
19676;BME280;39539;52.202;9.876;2023-12-20T02:33:49;100438.66;;;5.59;100.00
19676;BME280;39539;52.202;9.876;2023-12-20T02:36:14;100426.63;;;5.42;100.00
19676;BME280;39539;52.202;9.876;2023-12-20T02:38:40;100411.16;;;5.24;100.00
19676;BME280;39539;52.202;9.876;2023-12-20T02:41:05;100415.03;;;5.13;100.00
19676;BME280;39539;52.202;9.876;2023-12-20T02:43:30;100413.09;;;5.07;100.00
19676;BME280;39539;52.202;9.876;2023-12-20T02:45:55;100413.16;;;4.99;100.00
19676;BME280;39539;52.202;9.876;2023-12-20T02:48:21;100422.34;;;5.03;100.00
19676;BME280;39539;52.202;9.876;2023-12-20T02:50:47;100424.31;;;5.01;100.00
19676;BME280;39539;52.202;9.876;2023-12-20T02:53:14;100424.38;;;4.92;100.00
19676;BME280;39539;52.202;9.876;2023-12-20T02:55:39;100413.75;;;4.86;100.00
19676;BME280;39539;52.202;9.876;2023-12-20T02:58:04;100405.72;;;4.79;100.00
19676;BME280;39539;52.202;9.876;2023-12-20T03:00:30;100394.75;;;4.76;100.00
19676;BME280;39539;52.202;9.876;2023-12-20T03:02:55;100398.13;;;4.84;100.00
19676;BME280;39539;52.202;9.876;2023-12-20T03:05:20;100398.41;;;4.89;100.00
19676;BME280;39539;52.202;9.876;2023-12-20T03:07:46;100400.34;;;4.95;100.00
19676;BME280;39539;52.202;9.876;2023-12-20T03:10:11;100400.97;;;4.98;100.00
19676;BME280;39539;52.202;9.876;2023-12-20T03:12:36;100395.69;;;4.98;100.00
19676;BME280;39539;52.202;9.876;2023-12-20T03:15:02;100407.41;;;4.95;100.00
19676;BME280;39539;52.202;9.876;2023-12-20T03:17:27;100400.06;;;4.90;100.00
19676;BME280;39539;52.202;9.876;2023-12-20T03:19:53;100402.03;;;4.88;100.00
19676;BME280;39539;52.202;9.876;2023-12-20T03:22:18;100389.56;;;4.82;100.00
19676;BME280;39539;52.202;9.876;2023-12-20T03:24:43;100387.31;;;4.79;100.00
19676;BME280;39539;52.202;9.876;2023-12-20T03:27:09;100375.34;;;4.68;100.00
19676;BME280;39539;52.202;9.876;2023-12-20T03:29:34;100383.72;;;4.72;100.00
19676;BME280;39539;52.202;9.876;2023-12-20T03:31:59;100379.16;;;4.66;100.00
19676;BME280;39539;52.202;9.876;2023-12-20T03:34:26;100373.13;;;4.57;100.00
19676;BME280;39539;52.202;9.876;2023-12-20T03:36:51;100373.94;;;4.58;100.00
19676;BME280;39539;52.202;9.876;2023-12-20T03:39:17;100354.59;;;4.50;100.00
19676;BME280;39539;52.202;9.876;2023-12-20T03:41:42;100353.28;;;4.46;100.00
19676;BME280;39539;52.202;9.876;2023-12-20T03:44:07;100341.50;;;4.42;100.00
19676;BME280;39539;52.202;9.876;2023-12-20T03:46:32;100354.34;;;4.37;100.00
19676;BME280;39539;52.202;9.876;2023-12-20T03:48:58;100340.44;;;4.28;100.00
19676;BME280;39539;52.202;9.876;2023-12-20T03:51:23;100350.75;;;4.30;100.00
19676;BME280;39539;52.202;9.876;2023-12-20T03:53:48;100357.78;;;4.38;100.00
19676;BME280;39539;52.202;9.876;2023-12-20T03:56:14;100352.31;;;4.47;100.00
19676;BME280;39539;52.202;9.876;2023-12-20T03:58:39;100344.69;;;4.53;100.00
19676;BME280;39539;52.202;9.876;2023-12-20T04:01:09;100358.97;;;4.58;100.00
19676;BME280;39539;52.202;9.876;2023-12-20T04:03:35;100355.22;;;4.53;100.00
19676;BME280;39539;52.202;9.876;2023-12-20T04:06:01;100361.78;;;4.57;100.00
19676;BME280;39539;52.202;9.876;2023-12-20T04:08:26;100359.81;;;4.59;100.00
19676;BME280;39539;52.202;9.876;2023-12-20T04:10:51;100351.81;;;4.67;100.00
19676;BME280;39539;52.202;9.876;2023-12-20T04:13:17;100361.31;;;4.76;100.00
19676;BME280;39539;52.202;9.876;2023-12-20T04:15:42;100351.34;;;4.86;100.00
19676;BME280;39539;52.202;9.876;2023-12-20T04:18:07;100355.69;;;5.02;100.00
19676;BME280;39539;52.202;9.876;2023-12-20T04:20:33;100344.63;;;5.07;100.00
19676;BME280;39539;52.202;9.876;2023-12-20T04:22:58;100356.72;;;5.16;100.00
19676;BME280;39539;52.202;9.876;2023-12-20T04:25:23;100340.31;;;5.06;100.00
19676;BME280;39539;52.202;9.876;2023-12-20T04:27:49;100347.88;;;5.09;100.00
19676;BME280;39539;52.202;9.876;2023-12-20T04:30:14;100356.16;;;5.21;100.00
19676;BME280;39539;52.202;9.876;2023-12-20T04:32:39;100356.44;;;5.26;100.00
19676;BME280;39539;52.202;9.876;2023-12-20T04:35:05;100356.19;;;5.35;100.00
19676;BME280;39539;52.202;9.876;2023-12-20T04:37:30;100358.25;;;5.40;100.00
19676;BME280;39539;52.202;9.876;2023-12-20T04:39:56;100349.63;;;5.46;100.00
19676;BME280;39539;52.202;9.876;2023-12-20T04:42:21;100349.91;;;5.51;100.00
19676;BME280;39539;52.202;9.876;2023-12-20T04:44:46;100347.75;;;5.55;100.00
19676;BME280;39539;52.202;9.876;2023-12-20T04:47:12;100347.38;;;5.58;100.00
19676;BME280;39539;52.202;9.876;2023-12-20T04:49:37;100340.47;;;5.57;100.00
19676;BME280;39539;52.202;9.876;2023-12-20T04:52:02;100342.72;;;5.60;100.00
19676;BME280;39539;52.202;9.876;2023-12-20T04:54:28;100328.94;;;5.58;100.00
19676;BME280;39539;52.202;9.876;2023-12-20T04:56:53;100332.75;;;5.55;100.00
19676;BME280;39539;52.202;9.876;2023-12-20T04:59:18;100336.56;;;5.53;100.00
19676;BME280;39539;52.202;9.876;2023-12-20T05:01:44;100336.19;;;5.56;100.00
19676;BME280;39539;52.202;9.876;2023-12-20T05:04:09;100336.38;;;5.54;100.00
19676;BME280;39539;52.202;9.876;2023-12-20T05:06:34;100344.75;;;5.58;100.00
19676;BME280;39539;52.202;9.876;2023-12-20T05:09:00;100339.66;;;5.56;100.00
19676;BME280;39539;52.202;9.876;2023-12-20T05:11:25;100335.47;;;5.62;100.00
19676;BME280;39539;52.202;9.876;2023-12-20T05:13:50;100337.38;;;5.53;100.00
19676;BME280;39539;52.202;9.876;2023-12-20T05:16:15;100345.81;;;5.49;100.00
19676;BME280;39539;52.202;9.876;2023-12-20T05:18:43;100326.91;;;5.45;100.00
19676;BME280;39539;52.202;9.876;2023-12-20T05:21:08;100321.72;;;5.52;100.00
19676;BME280;39539;52.202;9.876;2023-12-20T05:23:34;100317.47;;;5.51;100.00
19676;BME280;39539;52.202;9.876;2023-12-20T05:26:00;100326.84;;;5.53;100.00
19676;BME280;39539;52.202;9.876;2023-12-20T05:28:25;100330.66;;;5.51;100.00
19676;BME280;39539;52.202;9.876;2023-12-20T05:30:51;100318.28;;;5.51;100.00
19676;BME280;39539;52.202;9.876;2023-12-20T05:33:16;100324.03;;;5.55;100.00
19676;BME280;39539;52.202;9.876;2023-12-20T05:35:41;100332.66;;;5.63;100.00
19676;BME280;39539;52.202;9.876;2023-12-20T05:38:07;100322.56;;;5.67;100.00
19676;BME280;39539;52.202;9.876;2023-12-20T05:40:32;100317.28;;;5.67;100.00
19676;BME280;39539;52.202;9.876;2023-12-20T05:42:57;100306.66;;;5.60;100.00
19676;BME280;39539;52.202;9.876;2023-12-20T05:45:22;100310.19;;;5.68;100.00
19676;BME280;39539;52.202;9.876;2023-12-20T05:47:48;100309.00;;;5.70;100.00
19676;BME280;39539;52.202;9.876;2023-12-20T05:50:13;100307.91;;;5.65;100.00
19676;BME280;39539;52.202;9.876;2023-12-20T05:52:40;100321.81;;;5.73;100.00
19676;BME280;39539;52.202;9.876;2023-12-20T05:55:06;100319.53;;;5.70;100.00
19676;BME280;39539;52.202;9.876;2023-12-20T05:57:31;100309.53;;;5.66;100.00
19676;BME280;39539;52.202;9.876;2023-12-20T05:59:57;100317.56;;;5.72;100.00
19676;BME280;39539;52.202;9.876;2023-12-20T06:02:23;100311.63;;;5.70;100.00
19676;BME280;39539;52.202;9.876;2023-12-20T06:04:48;100313.00;;;5.66;100.00
19676;BME280;39539;52.202;9.876;2023-12-20T06:07:15;100311.56;;;5.63;100.00
19676;BME280;39539;52.202;9.876;2023-12-20T06:09:40;100313.72;;;5.60;100.00
19676;BME280;39539;52.202;9.876;2023-12-20T06:12:07;100319.91;;;5.67;100.00
19676;BME280;39539;52.202;9.876;2023-12-20T06:14:33;100318.91;;;5.68;100.00
19676;BME280;39539;52.202;9.876;2023-12-20T06:16:58;100319.47;;;5.63;100.00
19676;BME280;39539;52.202;9.876;2023-12-20T06:19:24;100301.94;;;5.56;100.00
19676;BME280;39539;52.202;9.876;2023-12-20T06:21:49;100313.81;;;5.52;100.00
19676;BME280;39539;52.202;9.876;2023-12-20T06:24:14;100318.56;;;5.42;100.00
19676;BME280;39539;52.202;9.876;2023-12-20T06:26:40;100299.03;;;5.21;100.00
19676;BME280;39539;52.202;9.876;2023-12-20T06:29:07;100299.47;;;5.25;100.00
19676;BME280;39539;52.202;9.876;2023-12-20T06:31:32;100306.47;;;5.32;100.00
19676;BME280;39539;52.202;9.876;2023-12-20T06:33:58;100301.22;;;5.32;100.00
19676;BME280;39539;52.202;9.876;2023-12-20T06:36:28;100297.47;;;5.42;100.00
19676;BME280;39539;52.202;9.876;2023-12-20T06:38:54;100300.41;;;5.47;100.00
19676;BME280;39539;52.202;9.876;2023-12-20T06:41:19;100304.75;;;5.39;100.00
19676;BME280;39539;52.202;9.876;2023-12-20T06:43:45;100312.19;;;5.36;100.00
19676;BME280;39539;52.202;9.876;2023-12-20T06:46:12;100299.66;;;5.23;100.00
19676;BME280;39539;52.202;9.876;2023-12-20T06:48:39;100302.34;;;5.15;100.00
19676;BME280;39539;52.202;9.876;2023-12-20T06:51:05;100305.72;;;5.09;100.00
19676;BME280;39539;52.202;9.876;2023-12-20T06:53:31;100303.81;;;5.03;100.00
19676;BME280;39539;52.202;9.876;2023-12-20T06:55:57;100303.81;;;5.03;100.00
19676;BME280;39539;52.202;9.876;2023-12-20T06:58:23;100308.06;;;5.04;100.00
19676;BME280;39539;52.202;9.876;2023-12-20T07:00:48;100287.75;;;5.12;100.00
19676;BME280;39539;52.202;9.876;2023-12-20T07:03:15;100304.19;;;5.29;100.00
19676;BME280;39539;52.202;9.876;2023-12-20T07:05:41;100300.38;;;5.32;100.00
19676;BME280;39539;52.202;9.876;2023-12-20T07:08:07;100299.13;;;5.28;100.00
19676;BME280;39539;52.202;9.876;2023-12-20T07:10:32;100279.56;;;5.07;100.00
19676;BME280;39539;52.202;9.876;2023-12-20T07:12:58;100278.34;;;4.95;100.00
19676;BME280;39539;52.202;9.876;2023-12-20T07:15:23;100285.66;;;4.93;100.00
19676;BME280;39539;52.202;9.876;2023-12-20T07:17:49;100292.47;;;5.02;100.00
19676;BME280;39539;52.202;9.876;2023-12-20T07:20:15;100287.34;;;5.01;100.00
19676;BME280;39539;52.202;9.876;2023-12-20T07:22:40;100282.66;;;5.11;100.00
19676;BME280;39539;52.202;9.876;2023-12-20T07:25:06;100294.75;;;5.20;100.00
19676;BME280;39539;52.202;9.876;2023-12-20T07:27:33;100294.50;;;5.30;100.00
19676;BME280;39539;52.202;9.876;2023-12-20T07:29:58;100287.69;;;5.35;100.00
19676;BME280;39539;52.202;9.876;2023-12-20T07:32:24;100281.13;;;5.31;100.00
19676;BME280;39539;52.202;9.876;2023-12-20T07:34:49;100297.66;;;5.25;100.00
19676;BME280;39539;52.202;9.876;2023-12-20T07:37:15;100286.38;;;5.16;100.00
19676;BME280;39539;52.202;9.876;2023-12-20T07:39:40;100297.66;;;5.10;100.00
19676;BME280;39539;52.202;9.876;2023-12-20T07:42:07;100295.66;;;5.12;100.00
19676;BME280;39539;52.202;9.876;2023-12-20T07:44:33;100298.81;;;5.23;100.00
19676;BME280;39539;52.202;9.876;2023-12-20T07:46:58;100305.09;;;5.36;100.00
19676;BME280;39539;52.202;9.876;2023-12-20T07:49:24;100302.66;;;5.50;100.00
19676;BME280;39539;52.202;9.876;2023-12-20T07:51:49;100296.00;;;5.54;100.00
19676;BME280;39539;52.202;9.876;2023-12-20T07:54:15;100297.53;;;5.63;100.00
19676;BME280;39539;52.202;9.876;2023-12-20T07:56:41;100298.63;;;5.69;100.00
19676;BME280;39539;52.202;9.876;2023-12-20T07:59:06;100279.94;;;5.63;100.00
19676;BME280;39539;52.202;9.876;2023-12-20T08:01:31;100303.09;;;5.68;100.00
19676;BME280;39539;52.202;9.876;2023-12-20T08:03:57;100294.00;;;5.71;100.00
19676;BME280;39539;52.202;9.876;2023-12-20T08:06:22;100290.97;;;5.74;100.00
19676;BME280;39539;52.202;9.876;2023-12-20T08:08:48;100296.69;;;5.77;100.00
19676;BME280;39539;52.202;9.876;2023-12-20T08:11:13;100302.25;;;5.82;100.00
19676;BME280;39539;52.202;9.876;2023-12-20T08:13:39;100287.44;;;5.81;100.00
19676;BME280;39539;52.202;9.876;2023-12-20T08:16:05;100279.31;;;5.83;100.00
19676;BME280;39539;52.202;9.876;2023-12-20T08:18:30;100275.16;;;5.74;100.00
19676;BME280;39539;52.202;9.876;2023-12-20T08:20:56;100291.63;;;5.76;100.00
19676;BME280;39539;52.202;9.876;2023-12-20T08:23:21;100297.63;;;5.84;100.00
19676;BME280;39539;52.202;9.876;2023-12-20T08:25:47;100285.50;;;5.90;100.00
19676;BME280;39539;52.202;9.876;2023-12-20T08:28:13;100289.53;;;5.86;100.00
19676;BME280;39539;52.202;9.876;2023-12-20T08:30:39;100291.59;;;5.91;100.00
19676;BME280;39539;52.202;9.876;2023-12-20T08:33:04;100287.97;;;5.92;100.00
19676;BME280;39539;52.202;9.876;2023-12-20T08:35:30;100299.44;;;5.99;100.00
19676;BME280;39539;52.202;9.876;2023-12-20T08:37:56;100283.03;;;5.89;100.00
19676;BME280;39539;52.202;9.876;2023-12-20T08:40:21;100286.97;;;5.93;100.00
19676;BME280;39539;52.202;9.876;2023-12-20T08:42:46;100275.75;;;5.91;100.00
19676;BME280;39539;52.202;9.876;2023-12-20T08:45:12;100271.59;;;5.96;100.00
19676;BME280;39539;52.202;9.876;2023-12-20T08:47:37;100264.00;;;6.08;100.00
19676;BME280;39539;52.202;9.876;2023-12-20T08:50:03;100262.91;;;6.17;100.00
19676;BME280;39539;52.202;9.876;2023-12-20T08:52:29;100246.91;;;6.25;100.00
19676;BME280;39539;52.202;9.876;2023-12-20T08:54:55;100252.31;;;6.39;100.00
19676;BME280;39539;52.202;9.876;2023-12-20T08:57:20;100245.03;;;6.41;100.00
19676;BME280;39539;52.202;9.876;2023-12-20T08:59:47;100239.41;;;6.50;100.00
19676;BME280;39539;52.202;9.876;2023-12-20T09:02:13;100240.97;;;6.66;100.00
19676;BME280;39539;52.202;9.876;2023-12-20T09:04:39;100224.47;;;6.58;100.00
19676;BME280;39539;52.202;9.876;2023-12-20T09:07:04;100233.38;;;6.57;100.00
19676;BME280;39539;52.202;9.876;2023-12-20T09:09:29;100245.16;;;6.54;100.00
19676;BME280;39539;52.202;9.876;2023-12-20T09:11:57;100248.16;;;6.51;100.00
19676;BME280;39539;52.202;9.876;2023-12-20T09:14:23;100237.28;;;6.39;100.00
19676;BME280;39539;52.202;9.876;2023-12-20T09:16:48;100247.63;;;6.34;100.00
19676;BME280;39539;52.202;9.876;2023-12-20T09:19:16;100229.34;;;6.33;100.00
19676;BME280;39539;52.202;9.876;2023-12-20T09:21:42;100222.34;;;6.25;100.00
19676;BME280;39539;52.202;9.876;2023-12-20T09:24:07;100227.13;;;6.36;100.00
19676;BME280;39539;52.202;9.876;2023-12-20T09:26:34;100208.84;;;6.35;100.00
19676;BME280;39539;52.202;9.876;2023-12-20T09:28:59;100203.44;;;6.43;100.00
19676;BME280;39539;52.202;9.876;2023-12-20T09:31:25;100200.06;;;6.56;100.00
19676;BME280;39539;52.202;9.876;2023-12-20T09:33:50;100202.00;;;6.68;100.00
19676;BME280;39539;52.202;9.876;2023-12-20T09:36:16;100210.34;;;6.72;100.00
19676;BME280;39539;52.202;9.876;2023-12-20T09:38:41;100202.38;;;6.65;100.00
19676;BME280;39539;52.202;9.876;2023-12-20T09:41:07;100196.75;;;6.47;100.00
19676;BME280;39539;52.202;9.876;2023-12-20T09:43:35;100194.25;;;6.39;100.00
19676;BME280;39539;52.202;9.876;2023-12-20T09:46:05;100184.13;;;6.42;100.00
19676;BME280;39539;52.202;9.876;2023-12-20T09:48:31;100177.63;;;6.45;100.00
19676;BME280;39539;52.202;9.876;2023-12-20T09:50:58;100170.09;;;6.42;100.00
19676;BME280;39539;52.202;9.876;2023-12-20T09:53:24;100181.53;;;6.49;100.00
19676;BME280;39539;52.202;9.876;2023-12-20T09:55:57;100176.31;;;6.56;100.00
19676;BME280;39539;52.202;9.876;2023-12-20T09:58:24;100186.97;;;6.69;100.00
19676;BME280;39539;52.202;9.876;2023-12-20T10:00:49;100188.03;;;6.81;100.00
19676;BME280;39539;52.202;9.876;2023-12-20T10:03:15;100173.00;;;6.82;100.00
19676;BME280;39539;52.202;9.876;2023-12-20T10:05:43;100173.84;;;6.82;100.00
19676;BME280;39539;52.202;9.876;2023-12-20T10:08:09;100164.09;;;6.83;100.00
19676;BME280;39539;52.202;9.876;2023-12-20T10:10:34;100157.56;;;6.79;100.00
19676;BME280;39539;52.202;9.876;2023-12-20T10:13:03;100150.81;;;6.69;100.00
19676;BME280;39539;52.202;9.876;2023-12-20T10:15:29;100169.03;;;6.64;100.00
19676;BME280;39539;52.202;9.876;2023-12-20T10:17:56;100166.66;;;6.69;100.00
19676;BME280;39539;52.202;9.876;2023-12-20T10:20:22;100162.19;;;6.70;100.00
19676;BME280;39539;52.202;9.876;2023-12-20T10:22:47;100152.22;;;6.65;100.00
19676;BME280;39539;52.202;9.876;2023-12-20T10:25:16;100154.22;;;6.63;100.00
19676;BME280;39539;52.202;9.876;2023-12-20T10:27:42;100152.22;;;6.65;100.00
19676;BME280;39539;52.202;9.876;2023-12-20T10:30:08;100142.25;;;6.67;100.00
19676;BME280;39539;52.202;9.876;2023-12-20T10:32:34;100135.53;;;6.65;100.00
19676;BME280;39539;52.202;9.876;2023-12-20T10:35:00;100125.84;;;6.72;100.00
19676;BME280;39539;52.202;9.876;2023-12-20T10:37:25;100119.78;;;6.85;100.00
19676;BME280;39539;52.202;9.876;2023-12-20T10:39:52;100119.53;;;7.14;100.00
19676;BME280;39539;52.202;9.876;2023-12-20T10:42:22;100120.97;;;7.30;100.00
19676;BME280;39539;52.202;9.876;2023-12-20T10:44:51;100136.50;;;7.47;100.00
19676;BME280;39539;52.202;9.876;2023-12-20T10:47:17;100143.25;;;7.69;100.00
19676;BME280;39539;52.202;9.876;2023-12-20T10:49:43;100140.19;;;7.72;100.00
19676;BME280;39539;52.202;9.876;2023-12-20T10:52:11;100137.97;;;7.56;100.00
19676;BME280;39539;52.202;9.876;2023-12-20T10:54:36;100133.03;;;7.46;100.00
19676;BME280;39539;52.202;9.876;2023-12-20T10:57:05;100119.19;;;7.37;100.00
19676;BME280;39539;52.202;9.876;2023-12-20T10:59:33;100123.25;;;7.40;100.00
19676;BME280;39539;52.202;9.876;2023-12-20T11:01:59;100119.00;;;7.39;100.00
19676;BME280;39539;52.202;9.876;2023-12-20T11:04:40;100104.53;;;7.41;100.00
19676;BME280;39539;52.202;9.876;2023-12-20T11:07:19;100109.06;;;7.48;100.00
19676;BME280;39539;52.202;9.876;2023-12-20T11:09:58;100104.94;;;7.38;100.00
19676;BME280;39539;52.202;9.876;2023-12-20T11:12:37;100114.88;;;7.23;100.00
19676;BME280;39539;52.202;9.876;2023-12-20T11:15:06;100099.19;;;7.08;100.00
19676;BME280;39539;52.202;9.876;2023-12-20T11:17:32;100114.56;;;6.91;100.00
19676;BME280;39539;52.202;9.876;2023-12-20T11:22:27;100110.41;;;6.75;100.00
19676;BME280;39539;52.202;9.876;2023-12-20T11:24:53;100117.94;;;6.79;100.00
19676;BME280;39539;52.202;9.876;2023-12-20T11:27:19;100112.41;;;6.73;100.00
19676;BME280;39539;52.202;9.876;2023-12-20T11:29:52;100106.72;;;6.70;100.00
19676;BME280;39539;52.202;9.876;2023-12-20T11:34:51;100108.31;;;6.64;100.00
19676;BME280;39539;52.202;9.876;2023-12-20T11:37:19;100113.16;;;6.54;100.00
19676;BME280;39539;52.202;9.876;2023-12-20T11:39:44;100111.84;;;6.43;100.00
19676;BME280;39539;52.202;9.876;2023-12-20T11:42:10;100104.94;;;6.42;100.00
19676;BME280;39539;52.202;9.876;2023-12-20T11:44:36;100099.66;;;6.42;100.00
19676;BME280;39539;52.202;9.876;2023-12-20T11:47:03;100122.00;;;6.40;100.00
19676;BME280;39539;52.202;9.876;2023-12-20T11:49:29;100096.97;;;6.36;100.00
19676;BME280;39539;52.202;9.876;2023-12-20T11:51:57;100104.88;;;6.36;100.00
19676;BME280;39539;52.202;9.876;2023-12-20T11:54:22;100099.63;;;6.36;100.00
19676;BME280;39539;52.202;9.876;2023-12-20T11:56:48;100106.97;;;6.40;100.00
19676;BME280;39539;52.202;9.876;2023-12-20T11:59:14;100110.41;;;6.41;100.00
19676;BME280;39539;52.202;9.876;2023-12-20T12:01:39;100101.88;;;6.39;100.00
19676;BME280;39539;52.202;9.876;2023-12-20T12:04:05;100108.97;;;6.38;100.00
19676;BME280;39539;52.202;9.876;2023-12-20T12:06:30;100117.06;;;6.37;100.00
19676;BME280;39539;52.202;9.876;2023-12-20T12:08:56;100174.97;;;6.38;100.00
19676;BME280;39539;52.202;9.876;2023-12-20T12:11:22;100163.09;;;6.27;100.00
19676;BME280;39539;52.202;9.876;2023-12-20T12:13:48;100161.00;;;5.95;100.00
19676;BME280;39539;52.202;9.876;2023-12-20T12:16:17;100145.25;;;5.65;100.00
19676;BME280;39539;52.202;9.876;2023-12-20T12:18:44;100153.16;;;5.44;100.00
19676;BME280;39539;52.202;9.876;2023-12-20T12:21:10;100155.75;;;5.22;100.00
19676;BME280;39539;52.202;9.876;2023-12-20T12:23:35;100154.75;;;5.08;100.00
19676;BME280;39539;52.202;9.876;2023-12-20T12:26:04;100136.69;;;5.05;100.00
19676;BME280;39539;52.202;9.876;2023-12-20T12:28:29;100127.06;;;4.98;100.00
19676;BME280;39539;52.202;9.876;2023-12-20T12:30:58;100138.72;;;4.88;100.00
19676;BME280;39539;52.202;9.876;2023-12-20T12:33:25;100139.44;;;4.82;100.00
19676;BME280;39539;52.202;9.876;2023-12-20T12:35:51;100143.41;;;4.78;100.00
19676;BME280;39539;52.202;9.876;2023-12-20T12:38:20;100129.53;;;4.69;100.00
19676;BME280;39539;52.202;9.876;2023-12-20T12:40:46;100114.59;;;4.70;100.00
19676;BME280;39539;52.202;9.876;2023-12-20T12:43:11;100123.47;;;4.69;100.00
19676;BME280;39539;52.202;9.876;2023-12-20T12:45:38;100110.94;;;4.71;100.00
19676;BME280;39539;52.202;9.876;2023-12-20T12:48:04;100124.00;;;4.79;100.00